17:29
Airports
Links
Donate
Help keep this website running!
PayPal
Bitcoin
METAR
ENDU 211650Z 12008KT 9999 FEW035 SCT060 08/02 Q1026 TEMPO 12015G25KT RMK WIND 1100FT VRB02KT WIND 2200FT 14020KT
Current Weather Conditions at ENDU
VFR 16:50:00 21-09-17
Altimeter:30.30 hg
Temp:8.0°c 46°f
Dew point:2.0°c 36°f
Wind:8 knots, 9.2 mph, 4 m/s, from 120°
Visibility:6.21 statute miles
6000(SCT) Scattered
3500(FEW) A few
Past METAR reports
VFR 16:20:00 21-09-17
Altimeter:30.32 hg
Temp:9.0°c 48°f
Dew point:1.0°c 34°f
Wind:7 knots, 8.1 mph, 4 m/s, from 80°
Visibility:6.21 statute miles
6000(SCT) Scattered
3500(FEW) A few
ENDU 211620Z 08007KT 9999 FEW035 SCT060 09/01 Q1027 TEMPO 12015G25KT RMK WIND 1100FT 11005KT WIND 2200FT 14022KT
VFR 15:50:00 21-09-17
Altimeter:30.32 hg
Temp:9.0°c 48°f
Dew point:2.0°c 36°f
Wind:8 knots, 9.2 mph, 4 m/s, from 110°
Visibility:6.21 statute miles
6000(SCT) Scattered
3500(FEW) A few
ENDU 211550Z 11008KT 9999 FEW035 SCT060 09/02 Q1027 TEMPO 12015G25KT RMK WIND 1100FT 00000KT WIND 2200FT 13021KT
VFR 15:20:00 21-09-17
Altimeter:30.32 hg
Temp:10.0°c 50°f
Dew point:1.0°c 34°f
Wind:10 knots, 11.5 mph, 5 m/s, from 100°
Visibility:6.21 statute miles
7000(SCT) Scattered
3500(FEW) A few
ENDU 211520Z 10010KT 9999 FEW035 SCT070 10/01 Q1027 TEMPO 12015G25KT RMK WIND 1100FT VRB02KT WIND 2200FT 13022KT
VFR 14:50:00 21-09-17
Altimeter:30.32 hg
Temp:10.0°c 50°f
Dew point:1.0°c 34°f
Wind:9 knots, 10.4 mph, 5 m/s, from 110°
Visibility:6.21 statute miles
7000(SCT) Scattered
3500(FEW) A few
ENDU 211450Z 11009KT 070V140 9999 FEW035 SCT070 10/01 Q1027 TEMPO 12015G25KT RMK WIND 1100FT VRB03KT WIND 2200FT 13018KT
VFR 14:20:00 21-09-17
Altimeter:30.32 hg
Temp:10.0°c 50°f
Dew point:0.0°c 32°f
Wind:8 knots, 9.2 mph, 4 m/s, from 110°
Visibility:6.21 statute miles
6000(SCT) Scattered
3500(FEW) A few
ENDU 211420Z 11008KT 070V160 9999 FEW035 SCT060 10/00 Q1027 TEMPO 12015G25KT RMK WIND 1100FT VRB03KT WIND 2200FT 13017KT
VFR 13:50:00 21-09-17
Altimeter:30.32 hg
Temp:10.0°c 50°f
Dew point:1.0°c 34°f
Wind:12 knots, 13.8 mph, 6 m/s, from 90°
Visibility:6.21 statute miles
3500(FEW) A few
No significant weather changes expected within 2 hours.
ENDU 211350Z 09012KT 9999 FEW035 10/01 Q1027 NOSIG RMK WIND 1100FT 02003KT WIND 2200FT 14017KT
TAF
TAF ENDU 2112/2212 12008KT 9999 FEW030 SCT080 TEMPO 2112/2121 12015G25KT
Forecast at ENDU
TEMPO 12:00 21-09-17 to 21:00 21-09-17
Wind:15 Knots from 120°
12:00 21-09-17 to 12:00 22-09-17
Wind:8 Knots from 120°
Visibility:6.21 statute miles
3000FEW A few
8000SCT Scattered